Vallvik, Finland

01:04 AM EET on December 17, 2018 (GMT +0200)
Vaasa City | | Change Station

Elev 13 ft 63.11 °N, 21.66 °E | Updated 41 seconds ago

Molnigt
Molnigt
21.9 °F
Feels Like 17 °F
N
3.6
Vind Växlande Vind from Sydlig
Gusts 4.5 miles/tim

Idag
High -- | Low -- °F
--% Chance of Precip.
Yesterday
High -- | Low -- °F
Precip. -- tum
Lufttryck 30.30 tum
Sikt 6.2 miles
Molnigt Molnigt 900 ft
Vindavkylning 17 °F
Daggpunkt 20 °F
Luftfuktighet 92%
Rainfall 0.00 tum
Snow Depth Not available.
10:08 AM 2:48 PM
Andra kvarteret, 64% visible
METAR EFVA 162250Z AUTO 10008KT 070V140 9999 OVC009 M06/M07 Q1026
Lufttryck 30.30 tum
Sikt 6.2 miles
Molnigt Molnigt 900 ft
Vindavkylning 17 °F
Daggpunkt 20 °F
Luftfuktighet 92%
Rainfall 0.00 tum
Snow Depth Not available.
10:08 AM 2:48 PM
Andra kvarteret, 64% visible
METAR EFVA 162250Z AUTO 10008KT 070V140 9999 OVC009 M06/M07 Q1026

Get Severe Weather Alerts

Thanks for signing up!

Be on the lookout for a verification email in your inbox.

You'll start receiving the daily forecast at 6 AM.

×

10-Day Weather Forecast

×

Almanac

Astronomi

Dec. 17, 2018 Rise Set
Actual Time
Civil Twilight
Nautical Twilight
Astronomical Twilight
Månen
Length Of Visible Light
Dagens längd
Tomorrow will be .
, % of the Moon is Illuminated

Today's Extremes

Country Highs Country Lows

Community

WunderPhotos

Category 6

Welcome to Category 6. This is the collective home for Weather Underground's featured writeups by Dr. Jeff Masters (right), Bob Henson (left), Chris Burt, and other regular contributors.

Nearby

Air Quality

  Air Quality AQ Index Pollutant
Not available.

Snödjup

Station Depth Elevation

Earthquake Activity

Stad Distance Mag. Time & Date
Minimum magnitude displayed is 2.5.

Coastal Water Temperatures

Plats Temperatur

Stations

Nearby Weather Stations

Station Location Temp Vindavkylning Daggpunkt Luftfuktighet Vind Precip. Elev Uppdaterad Type